createdAt,value
2023-03-29T00:00:13.451Z,26.31
2023-03-29T00:01:34.779Z,26.31
2023-03-29T00:02:14.446Z,26.32
2023-03-29T00:03:13.550Z,26.31
2023-03-29T00:04:13.594Z,26.32
2023-03-29T00:05:13.408Z,26.31
2023-03-29T00:06:13.416Z,26.31
2023-03-29T00:07:13.405Z,26.32
2023-03-29T00:08:13.386Z,26.31
2023-03-29T00:09:13.394Z,26.29
2023-03-29T00:10:13.407Z,26.31
2023-03-29T00:11:13.390Z,26.31
2023-03-29T00:12:13.370Z,26.29
2023-03-29T00:13:13.385Z,26.29
2023-03-29T00:14:13.362Z,26.31
2023-03-29T00:15:13.354Z,26.29
2023-03-29T00:16:13.340Z,26.31
2023-03-29T00:17:13.472Z,26.28
2023-03-29T00:18:13.348Z,26.31
2023-03-29T00:19:13.342Z,26.29
2023-03-29T00:20:13.338Z,26.29
2023-03-29T00:21:13.328Z,26.29
2023-03-29T00:22:13.316Z,26.29
2023-03-29T00:23:13.368Z,26.31
2023-03-29T00:24:13.479Z,26.29
2023-03-29T00:25:13.487Z,26.29
2023-03-29T00:26:13.500Z,26.31
2023-03-29T00:27:13.508Z,26.29
2023-03-29T00:28:13.523Z,26.31
2023-03-29T00:29:13.506Z,26.31
2023-03-29T00:30:13.631Z,26.31
2023-03-29T00:31:13.760Z,26.28
2023-03-29T00:32:13.715Z,26.28
2023-03-29T00:33:13.669Z,26.31
2023-03-29T00:34:13.684Z,26.29
2023-03-29T00:35:13.704Z,26.27
2023-03-29T00:36:13.707Z,26.31
2023-03-29T00:37:13.713Z,26.28
2023-03-29T00:38:13.742Z,26.29
2023-03-29T00:39:13.723Z,26.28
2023-03-29T00:40:13.846Z,26.29
2023-03-29T00:41:13.857Z,26.28
2023-03-29T00:42:13.867Z,26.31
2023-03-29T00:43:13.860Z,26.32
2023-03-29T00:44:13.877Z,26.29
2023-03-29T00:45:13.893Z,26.31
2023-03-29T00:46:13.944Z,26.27
2023-03-29T00:47:13.931Z,26.28
2023-03-29T00:48:13.973Z,26.29
2023-03-29T00:49:13.970Z,26.28
2023-03-29T00:50:13.945Z,26.29
2023-03-29T00:51:13.977Z,26.31
2023-03-29T00:52:14.014Z,26.28
2023-03-29T00:53:14.013Z,26.28
2023-03-29T00:54:14.024Z,26.28
2023-03-29T00:55:14.020Z,26.29
2023-03-29T00:56:14.098Z,26.28
2023-03-29T00:57:14.116Z,26.28
2023-03-29T00:58:14.090Z,26.28
2023-03-29T00:59:14.101Z,26.28
2023-03-29T01:00:14.200Z,26.29
2023-03-29T01:01:14.297Z,26.28
2023-03-29T01:02:14.402Z,26.29
2023-03-29T01:03:14.467Z,26.31
2023-03-29T01:04:14.275Z,26.27
2023-03-29T01:05:14.317Z,26.27
2023-03-29T01:06:14.337Z,26.28
2023-03-29T01:07:14.425Z,26.25
2023-03-29T01:08:14.366Z,26.28
2023-03-29T01:09:14.371Z,26.29
2023-03-29T01:10:14.471Z,26.29
2023-03-29T01:11:14.466Z,26.28
2023-03-29T01:12:14.484Z,26.27
2023-03-29T01:13:14.472Z,26.25
2023-03-29T01:14:14.495Z,26.28
2023-03-29T01:15:14.511Z,26.25
2023-03-29T01:16:14.620Z,26.28
2023-03-29T01:17:14.624Z,26.27
2023-03-29T01:18:14.635Z,26.27
2023-03-29T01:19:14.628Z,26.28
2023-03-29T01:20:14.655Z,26.27
2023-03-29T01:21:14.680Z,26.29
2023-03-29T01:22:14.673Z,26.25
2023-03-29T01:23:14.694Z,26.27
2023-03-29T01:24:14.701Z,26.28
2023-03-29T01:25:14.707Z,26.27
2023-03-29T01:26:14.734Z,26.27
2023-03-29T01:27:14.792Z,26.27
2023-03-29T01:28:14.789Z,26.28
2023-03-29T01:29:14.795Z,26.27
2023-03-29T01:30:14.891Z,26.27
2023-03-29T01:31:14.848Z,26.28
2023-03-29T01:32:14.854Z,26.28
2023-03-29T01:33:14.866Z,26.28
2023-03-29T01:34:14.863Z,26.27
2023-03-29T01:35:14.901Z,26.27
2023-03-29T01:36:14.934Z,26.27
2023-03-29T01:37:14.924Z,26.25
2023-03-29T01:38:14.958Z,26.27
2023-03-29T01:39:14.967Z,26.25
2023-03-29T01:40:14.975Z,26.27
2023-03-29T01:41:14.985Z,26.28
2023-03-29T01:42:14.990Z,26.25
2023-03-29T01:43:15.046Z,26.27
2023-03-29T01:44:14.996Z,26.28
2023-03-29T01:45:15.003Z,26.27
2023-03-29T01:46:15.126Z,26.28
2023-03-29T01:47:15.137Z,26.27
2023-03-29T01:48:15.170Z,26.27
2023-03-29T01:49:15.156Z,26.25
2023-03-29T01:50:15.135Z,26.25
2023-03-29T01:51:15.149Z,26.25
2023-03-29T01:52:15.273Z,26.25
2023-03-29T01:53:15.275Z,26.27
2023-03-29T01:54:15.282Z,26.27
2023-03-29T01:55:15.273Z,26.28
2023-03-29T01:56:15.307Z,26.27
2023-03-29T01:57:15.407Z,26.27
2023-03-29T01:58:15.334Z,26.27
2023-03-29T01:59:15.335Z,26.25
2023-03-29T02:00:15.378Z,26.28
2023-03-29T02:01:15.433Z,26.25
2023-03-29T02:02:15.470Z,26.27
2023-03-29T02:03:15.516Z,26.27
2023-03-29T02:04:15.408Z,26.27
2023-03-29T02:05:15.413Z,26.27
2023-03-29T02:06:15.441Z,26.24
2023-03-29T02:07:15.439Z,26.27
2023-03-29T02:08:15.489Z,26.25
2023-03-29T02:09:15.486Z,26.28
2023-03-29T02:10:15.462Z,26.25
2023-03-29T02:11:15.577Z,26.27
2023-03-29T02:12:15.690Z,26.25
2023-03-29T02:13:15.675Z,26.27
2023-03-29T02:14:15.729Z,26.24
2023-03-29T02:15:15.698Z,26.24
2023-03-29T02:16:15.769Z,26.25
2023-03-29T02:17:15.743Z,26.27
2023-03-29T02:18:15.776Z,26.27
2023-03-29T02:19:15.768Z,26.25
2023-03-29T02:20:15.797Z,26.25
2023-03-29T02:21:15.807Z,26.24
2023-03-29T02:22:15.808Z,26.27
2023-03-29T02:23:15.857Z,26.25
2023-03-29T02:24:15.862Z,26.27
2023-03-29T02:25:15.852Z,26.25
2023-03-29T02:26:15.882Z,26.28
2023-03-29T02:27:15.912Z,26.25
2023-03-29T02:28:16.002Z,26.25
2023-03-29T02:29:16.014Z,26.25
2023-03-29T02:30:16.052Z,26.22
2023-03-29T02:31:16.081Z,26.25
2023-03-29T02:32:16.080Z,26.28
2023-03-29T02:33:16.072Z,26.27
2023-03-29T02:34:16.148Z,26.28
2023-03-29T02:35:16.168Z,26.25
2023-03-29T02:36:16.200Z,26.27
2023-03-29T02:37:16.193Z,26.28
2023-03-29T02:38:16.207Z,26.25
2023-03-29T02:39:16.269Z,26.25
2023-03-29T02:40:16.349Z,26.25
2023-03-29T02:41:16.304Z,26.27
2023-03-29T02:42:16.310Z,26.27
2023-03-29T02:43:16.321Z,26.27
2023-03-29T02:44:16.342Z,26.27
2023-03-29T02:45:16.374Z,26.27
2023-03-29T02:46:16.403Z,26.25
2023-03-29T02:47:16.397Z,26.28
2023-03-29T02:48:16.414Z,26.27
2023-03-29T02:49:16.451Z,26.25
2023-03-29T02:50:16.489Z,26.25
2023-03-29T02:51:18.616Z,26.28
2023-03-29T02:52:16.472Z,26.24
2023-03-29T02:53:16.462Z,26.25
2023-03-29T02:54:16.459Z,26.27
2023-03-29T02:55:16.439Z,26.25
2023-03-29T02:56:16.445Z,26.27
2023-03-29T02:57:16.521Z,26.28
2023-03-29T02:58:16.443Z,26.27
2023-03-29T02:59:16.437Z,26.25
2023-03-29T03:00:16.411Z,26.25
2023-03-29T03:01:16.405Z,26.27
2023-03-29T03:02:16.479Z,26.28
2023-03-29T03:03:16.530Z,26.25
2023-03-29T03:04:16.436Z,26.28
2023-03-29T03:05:16.389Z,26.28
2023-03-29T03:06:16.386Z,26.27
2023-03-29T03:07:16.375Z,26.27
2023-03-29T03:08:16.400Z,26.25
2023-03-29T03:09:16.362Z,26.25
2023-03-29T03:10:16.357Z,26.25
2023-03-29T03:11:16.339Z,26.24
2023-03-29T03:12:16.354Z,26.27
2023-03-29T03:13:16.333Z,26.27
2023-03-29T03:14:16.362Z,26.27
2023-03-29T03:15:16.327Z,26.25
2023-03-29T03:16:16.318Z,26.27
2023-03-29T03:17:16.305Z,26.28
2023-03-29T03:18:16.327Z,26.28
2023-03-29T03:19:16.333Z,26.27
2023-03-29T03:20:16.272Z,26.24
2023-03-29T03:21:16.281Z,26.28
2023-03-29T03:22:16.273Z,26.28
2023-03-29T03:23:16.283Z,26.28
2023-03-29T03:24:16.253Z,26.28
2023-03-29T03:25:16.242Z,26.28
2023-03-29T03:26:16.265Z,26.25
2023-03-29T03:27:16.243Z,26.27
2023-03-29T03:28:16.228Z,26.28
2023-03-29T03:29:16.213Z,26.29
2023-03-29T03:30:16.210Z,26.27
2023-03-29T03:31:16.233Z,26.27
2023-03-29T03:32:16.196Z,26.27
2023-03-29T03:33:16.239Z,26.27
2023-03-29T03:34:16.194Z,26.28
2023-03-29T03:35:16.190Z,26.28
2023-03-29T03:36:16.197Z,26.28
2023-03-29T03:37:16.208Z,26.25
2023-03-29T03:38:16.166Z,26.25
2023-03-29T03:39:16.181Z,26.28
2023-03-29T03:40:16.136Z,26.27
2023-03-29T03:41:16.128Z,26.27
2023-03-29T03:42:16.131Z,26.25
2023-03-29T03:43:16.143Z,26.25
2023-03-29T03:44:16.135Z,26.25
2023-03-29T03:45:16.122Z,26.27
2023-03-29T03:46:16.162Z,26.24
2023-03-29T03:47:16.102Z,26.27
2023-03-29T03:48:16.075Z,26.25
2023-03-29T03:49:16.096Z,26.24
2023-03-29T03:50:16.109Z,26.25
2023-03-29T03:51:16.067Z,26.27
2023-03-29T03:52:16.058Z,26.25
2023-03-29T03:53:16.064Z,26.24
2023-03-29T03:54:16.042Z,26.27
2023-03-29T03:55:16.053Z,26.24
2023-03-29T03:56:16.038Z,26.25
2023-03-29T03:57:16.096Z,26.25
2023-03-29T03:58:16.016Z,26.27
2023-03-29T03:59:16.025Z,26.28
2023-03-29T04:00:16.024Z,26.25
2023-03-29T04:01:16.001Z,26.27
2023-03-29T04:02:16.013Z,26.27
2023-03-29T04:03:16.082Z,26.25
2023-03-29T04:04:16.008Z,26.27
2023-03-29T04:05:15.986Z,26.24
2023-03-29T04:06:15.976Z,26.27
2023-03-29T04:07:15.974Z,26.27
2023-03-29T04:08:15.965Z,26.25
2023-03-29T04:09:15.948Z,26.24
2023-03-29T04:10:15.990Z,26.27
2023-03-29T04:11:15.956Z,26.25
2023-03-29T04:12:15.924Z,26.27
2023-03-29T04:13:15.918Z,26.27
2023-03-29T04:14:15.927Z,26.25
2023-03-29T04:15:15.916Z,26.25
2023-03-29T04:16:15.947Z,26.25
2023-03-29T04:17:15.895Z,26.28
2023-03-29T04:18:16.141Z,26.25
2023-03-29T04:19:15.891Z,26.25
2023-03-29T04:20:15.876Z,26.25
2023-03-29T04:21:15.880Z,26.25
2023-03-29T04:22:15.875Z,26.27
2023-03-29T04:23:15.863Z,26.25
2023-03-29T04:24:15.855Z,26.27
2023-03-29T04:25:15.850Z,26.24
2023-03-29T04:26:15.881Z,26.27
2023-03-29T04:27:15.835Z,26.25
2023-03-29T04:28:15.921Z,26.25
2023-03-29T04:29:15.934Z,26.25
2023-03-29T04:30:15.960Z,26.25
2023-03-29T04:31:15.937Z,26.27
2023-03-29T04:32:15.942Z,26.24
2023-03-29T04:33:15.959Z,26.25
2023-03-29T04:34:15.996Z,26.25
2023-03-29T04:35:16.006Z,26.25
2023-03-29T04:36:16.134Z,26.25
2023-03-29T04:37:16.020Z,26.25
2023-03-29T04:38:16.031Z,26.25
2023-03-29T04:39:16.043Z,26.27
2023-03-29T04:40:16.047Z,26.27
2023-03-29T04:41:16.064Z,26.27
2023-03-29T04:42:16.074Z,26.27
2023-03-29T04:43:16.105Z,26.25
2023-03-29T04:44:16.187Z,26.24
2023-03-29T04:45:16.198Z,26.24
2023-03-29T04:46:16.220Z,26.24
2023-03-29T04:47:16.215Z,26.27
2023-03-29T04:48:16.237Z,26.25
2023-03-29T04:49:16.329Z,26.22
2023-03-29T04:50:16.349Z,26.22
2023-03-29T04:51:16.354Z,26.24
2023-03-29T04:52:16.361Z,26.24
2023-03-29T04:53:16.414Z,26.25
2023-03-29T04:54:16.397Z,26.27
2023-03-29T04:55:16.489Z,26.24
2023-03-29T04:56:16.498Z,26.24
2023-03-29T04:57:16.539Z,26.24
2023-03-29T04:58:16.522Z,26.25
2023-03-29T04:59:16.543Z,26.24
2023-03-29T05:00:16.544Z,26.24
2023-03-29T05:01:16.739Z,26.22
2023-03-29T05:02:16.667Z,26.24
2023-03-29T05:03:50.644Z,26.25
2023-03-29T05:04:50.532Z,26.24
2023-03-29T05:05:50.501Z,26.22
2023-03-29T05:06:50.485Z,26.24
2023-03-29T05:07:50.483Z,26.25
2023-03-29T05:08:50.511Z,26.28
2023-03-29T05:09:50.468Z,26.25
2023-03-29T05:10:50.446Z,26.27
2023-03-29T05:11:50.457Z,26.24
2023-03-29T05:12:50.439Z,26.25
2023-03-29T05:13:50.467Z,26.27
2023-03-29T05:14:50.468Z,26.25
2023-03-29T05:15:50.447Z,26.24
2023-03-29T05:16:50.422Z,26.22
2023-03-29T05:17:50.451Z,26.27
2023-03-29T05:18:50.427Z,26.25
2023-03-29T05:19:50.445Z,26.25
2023-03-29T05:20:50.452Z,26.28
2023-03-29T05:21:50.489Z,26.25
2023-03-29T05:22:50.374Z,26.24
2023-03-29T05:23:50.388Z,26.25
2023-03-29T05:24:50.438Z,26.25
2023-03-29T05:25:50.392Z,26.28
2023-03-29T05:26:50.350Z,26.29
2023-03-29T05:27:50.362Z,26.28
2023-03-29T05:28:50.379Z,26.29
2023-03-29T05:29:50.361Z,26.28
2023-03-29T05:30:50.350Z,26.31
2023-03-29T05:31:50.408Z,26.27
2023-03-29T05:32:50.363Z,26.29
2023-03-29T05:33:50.327Z,26.32
2023-03-29T05:34:50.322Z,26.34
2023-03-29T05:35:50.323Z,26.34
2023-03-29T05:36:50.318Z,26.36
2023-03-29T05:37:50.341Z,26.38
2023-03-29T05:38:50.332Z,26.42
2023-03-29T05:39:50.255Z,26.42
2023-03-29T05:40:50.253Z,26.45
2023-03-29T05:41:50.257Z,26.45
2023-03-29T05:42:50.281Z,26.51
2023-03-29T05:43:50.245Z,26.52
2023-03-29T05:44:51.567Z,26.55
2023-03-29T05:45:50.437Z,26.59
2023-03-29T05:46:50.452Z,26.60
2023-03-29T05:47:50.516Z,26.62
2023-03-29T05:48:50.537Z,26.68
2023-03-29T05:49:50.594Z,26.66
2023-03-29T05:50:50.685Z,26.72
2023-03-29T05:51:50.696Z,26.70
2023-03-29T05:52:50.771Z,26.69
2023-03-29T05:53:50.813Z,26.68
2023-03-29T05:54:50.879Z,26.64
2023-03-29T05:55:51.024Z,26.68
2023-03-29T05:56:50.994Z,26.63
2023-03-29T05:57:51.008Z,26.59
2023-03-29T05:58:52.946Z,26.56
2023-03-29T05:59:51.056Z,26.55
2023-03-29T06:00:51.051Z,26.53
2023-03-29T06:01:51.022Z,26.51
2023-03-29T06:02:51.144Z,26.49
2023-03-29T06:03:51.185Z,26.46
2023-03-29T06:04:51.067Z,26.48
2023-03-29T06:05:51.014Z,26.48
2023-03-29T06:06:51.001Z,26.48
2023-03-29T06:07:51.048Z,26.51
2023-03-29T06:08:51.005Z,26.52
2023-03-29T06:09:50.974Z,26.55
2023-03-29T06:10:50.966Z,26.58
2023-03-29T06:11:50.974Z,26.60
2023-03-29T06:12:51.001Z,26.63
2023-03-29T06:13:50.942Z,26.64
2023-03-29T06:14:50.944Z,26.68
2023-03-29T06:15:50.954Z,26.72
2023-03-29T06:16:50.967Z,26.70
2023-03-29T06:17:50.988Z,26.73
2023-03-29T06:18:50.905Z,26.76
2023-03-29T06:19:50.886Z,26.79
2023-03-29T06:20:50.907Z,26.80
2023-03-29T06:21:50.892Z,26.85
2023-03-29T06:22:50.867Z,26.85
2023-03-29T06:23:50.861Z,26.86
2023-03-29T06:24:50.860Z,26.87
2023-03-29T06:25:51.024Z,26.91
2023-03-29T06:26:50.857Z,26.93
2023-03-29T06:27:50.855Z,26.96
2023-03-29T06:28:52.273Z,26.96
2023-03-29T06:29:50.844Z,26.96
2023-03-29T06:30:50.861Z,26.94
2023-03-29T06:31:50.876Z,26.94
2023-03-29T06:32:50.852Z,26.99
2023-03-29T06:33:50.813Z,26.96
2023-03-29T06:34:50.865Z,27.00
2023-03-29T06:35:50.851Z,27.01
2023-03-29T06:36:50.818Z,27.01
2023-03-29T06:37:50.764Z,27.04
2023-03-29T06:38:50.771Z,27.06
2023-03-29T06:39:52.832Z,27.06
2023-03-29T06:40:50.892Z,27.10
2023-03-29T06:41:50.948Z,27.11
2023-03-29T06:42:50.953Z,27.11
2023-03-29T06:43:50.984Z,27.13
2023-03-29T06:44:50.994Z,27.14
2023-03-29T06:45:51.023Z,27.15
2023-03-29T06:46:52.135Z,27.15
2023-03-29T06:47:51.574Z,27.20
2023-03-29T06:48:51.091Z,27.20
2023-03-29T06:49:51.108Z,27.21
2023-03-29T06:50:51.137Z,27.20
2023-03-29T06:51:51.175Z,27.24
2023-03-29T06:52:51.563Z,27.24
2023-03-29T06:53:51.205Z,27.24
2023-03-29T06:54:51.581Z,27.24
2023-03-29T06:55:51.204Z,27.27
2023-03-29T06:56:51.273Z,27.27
2023-03-29T06:57:51.558Z,27.28
2023-03-29T06:58:51.252Z,27.30
2023-03-29T06:59:51.297Z,27.30
2023-03-29T07:00:51.280Z,27.31
2023-03-29T07:01:51.342Z,27.30
2023-03-29T07:02:51.569Z,27.31
2023-03-29T07:03:51.364Z,27.31
2023-03-29T07:04:51.431Z,27.31
2023-03-29T07:05:51.366Z,27.31
2023-03-29T07:06:51.415Z,27.31
2023-03-29T07:07:51.588Z,27.34
2023-03-29T07:08:51.480Z,27.31
2023-03-29T07:09:51.458Z,27.31
2023-03-29T07:10:51.481Z,27.33
2023-03-29T07:11:51.528Z,27.34
2023-03-29T07:12:51.525Z,27.34
2023-03-29T07:13:51.534Z,27.33
2023-03-29T07:14:51.609Z,27.33
2023-03-29T07:15:51.627Z,27.34
2023-03-29T07:16:51.642Z,27.34
2023-03-29T07:17:51.649Z,27.36
2023-03-29T07:18:51.627Z,27.37
2023-03-29T07:19:51.659Z,27.36
2023-03-29T07:20:51.674Z,27.40
2023-03-29T07:21:52.070Z,27.40
2023-03-29T07:22:51.712Z,27.38
2023-03-29T07:23:51.708Z,27.30
2023-03-29T07:24:51.702Z,27.31
2023-03-29T07:25:51.729Z,27.28
2023-03-29T07:27:03.222Z,27.31
2023-03-29T07:27:53.065Z,27.33
2023-03-29T07:28:51.737Z,27.31
2023-03-29T07:29:51.741Z,27.31
2023-03-29T07:30:51.724Z,27.36
2023-03-29T07:31:51.708Z,27.37
2023-03-29T07:32:52.085Z,27.36
2023-03-29T07:33:51.743Z,27.38
2023-03-29T07:34:51.695Z,27.38
2023-03-29T07:35:51.727Z,27.38
2023-03-29T07:36:51.706Z,27.37
2023-03-29T07:37:52.072Z,27.37
2023-03-29T07:38:52.932Z,27.37
2023-03-29T07:39:51.696Z,27.38
2023-03-29T07:40:51.651Z,27.37
2023-03-29T07:41:51.668Z,27.37
2023-03-29T07:42:51.671Z,27.36
2023-03-29T07:43:51.660Z,27.36
2023-03-29T07:44:52.085Z,27.37
2023-03-29T07:45:51.686Z,27.34
2023-03-29T07:46:51.621Z,27.34
2023-03-29T07:47:51.689Z,27.34
2023-03-29T07:48:51.621Z,27.34
2023-03-29T07:49:52.072Z,27.31
2023-03-29T07:50:51.601Z,27.30
2023-03-29T07:51:51.586Z,27.31
2023-03-29T07:52:52.095Z,27.30
2023-03-29T07:53:51.568Z,27.30
2023-03-29T07:54:52.061Z,27.26
2023-03-29T07:55:51.550Z,27.26
2023-03-29T07:56:51.574Z,27.24
2023-03-29T07:57:51.574Z,27.24
2023-03-29T07:58:51.546Z,27.23
2023-03-29T07:59:51.559Z,27.21
2023-03-29T08:00:51.560Z,27.23
2023-03-29T08:01:51.526Z,27.23
2023-03-29T08:02:51.539Z,27.23
2023-03-29T08:03:51.574Z,27.20
2023-03-29T08:04:51.502Z,27.20
2023-03-29T08:05:51.489Z,27.21
2023-03-29T08:06:51.509Z,27.20
2023-03-29T08:07:51.461Z,27.20
2023-03-29T08:08:51.516Z,27.17
2023-03-29T08:09:51.457Z,27.20
2023-03-29T08:10:51.462Z,27.17
2023-03-29T08:11:51.455Z,27.17
2023-03-29T08:12:51.428Z,27.17
2023-03-29T08:13:51.427Z,27.14
2023-03-29T08:14:51.574Z,27.14
2023-03-29T08:15:51.417Z,27.14
2023-03-29T08:16:51.433Z,27.15
2023-03-29T08:17:51.445Z,27.17
2023-03-29T08:18:51.395Z,27.14
2023-03-29T08:19:51.818Z,27.14
2023-03-29T08:20:51.375Z,27.14
2023-03-29T08:21:51.345Z,27.15
2023-03-29T08:22:51.354Z,27.14
2023-03-29T08:23:51.364Z,27.14
2023-03-29T08:24:51.599Z,27.14
2023-03-29T08:25:51.337Z,27.15
2023-03-29T08:26:51.396Z,27.21
2023-03-29T08:27:51.607Z,27.17
2023-03-29T08:28:51.344Z,27.20
2023-03-29T08:29:51.311Z,27.20
2023-03-29T08:30:51.294Z,27.20
2023-03-29T08:31:51.295Z,27.17
2023-03-29T08:32:54.450Z,27.21
2023-03-29T08:33:51.283Z,27.20
2023-03-29T08:34:51.257Z,27.20
2023-03-29T08:35:51.334Z,27.23
2023-03-29T08:36:52.100Z,27.21
2023-03-29T08:37:51.644Z,27.23
2023-03-29T08:38:51.231Z,27.24
2023-03-29T08:39:51.226Z,27.26
2023-03-29T08:40:51.212Z,27.28
2023-03-29T08:41:51.236Z,27.26
2023-03-29T08:42:52.107Z,27.28
2023-03-29T08:43:51.216Z,27.28
2023-03-29T08:44:51.192Z,27.33
2023-03-29T08:45:51.349Z,27.36
2023-03-29T08:46:51.244Z,27.37
2023-03-29T08:47:51.238Z,27.38
2023-03-29T08:48:51.137Z,27.38
2023-03-29T08:49:51.145Z,27.41
2023-03-29T08:50:51.135Z,27.40
2023-03-29T08:51:51.154Z,27.42
2023-03-29T08:52:51.171Z,27.42
2023-03-29T08:53:51.112Z,27.45
2023-03-29T08:54:51.098Z,27.42
2023-03-29T08:55:51.102Z,27.47
2023-03-29T08:56:51.223Z,27.50
2023-03-29T08:57:51.100Z,27.48
2023-03-29T08:58:51.613Z,27.50
2023-03-29T08:59:51.069Z,27.52
2023-03-29T09:00:51.076Z,27.48
2023-03-29T09:01:51.061Z,27.51
2023-03-29T09:02:51.143Z,27.52
2023-03-29T09:03:51.175Z,27.54
2023-03-29T09:04:51.067Z,27.54
2023-03-29T09:05:51.023Z,27.55
2023-03-29T09:06:51.022Z,27.58
2023-03-29T09:07:51.029Z,27.57
2023-03-29T09:08:51.108Z,27.58
2023-03-29T09:09:51.001Z,27.61
2023-03-29T09:10:51.000Z,27.59
2023-03-29T09:11:50.984Z,27.64
2023-03-29T09:12:51.041Z,27.62
2023-03-29T09:13:51.002Z,27.62
2023-03-29T09:14:50.951Z,27.62
2023-03-29T09:15:51.004Z,27.65
2023-03-29T09:16:50.976Z,27.66
2023-03-29T09:17:51.165Z,27.66
2023-03-29T09:18:50.965Z,27.65
2023-03-29T09:19:50.927Z,27.68
2023-03-29T09:20:50.949Z,27.65
2023-03-29T09:21:50.920Z,27.66
2023-03-29T09:22:51.620Z,27.66
2023-03-29T09:23:51.022Z,27.65
2023-03-29T09:24:50.968Z,27.68
2023-03-29T09:25:53.446Z,27.68
2023-03-29T09:26:50.872Z,27.66
2023-03-29T09:27:51.182Z,27.66
2023-03-29T09:28:50.920Z,27.69
2023-03-29T09:29:50.914Z,27.66
2023-03-29T09:30:50.879Z,27.66
2023-03-29T09:31:50.931Z,27.62
2023-03-29T09:32:51.132Z,27.61
2023-03-29T09:33:51.135Z,27.54
2023-03-29T09:34:50.867Z,27.50
2023-03-29T09:35:50.869Z,27.45
2023-03-29T09:36:50.871Z,27.44
2023-03-29T09:37:50.803Z,27.42
2023-03-29T09:38:50.791Z,27.44
2023-03-29T09:39:50.800Z,27.42
2023-03-29T09:40:50.767Z,27.41
2023-03-29T09:41:50.768Z,27.44
2023-03-29T09:42:50.785Z,27.44
2023-03-29T09:43:50.764Z,27.45
2023-03-29T09:44:50.742Z,27.47
2023-03-29T09:45:50.800Z,27.48
2023-03-29T09:46:50.747Z,27.47
2023-03-29T09:47:50.788Z,27.51
2023-03-29T09:48:51.152Z,27.51
2023-03-29T09:49:50.717Z,27.54
2023-03-29T09:50:50.762Z,27.55
2023-03-29T09:51:50.715Z,27.58
2023-03-29T09:52:50.727Z,27.59
2023-03-29T09:53:51.115Z,27.59
2023-03-29T09:54:50.713Z,27.64
2023-03-29T09:55:50.748Z,27.65
2023-03-29T09:56:50.792Z,27.64
2023-03-29T09:57:50.701Z,27.71
2023-03-29T09:58:50.680Z,27.69
2023-03-29T09:59:50.668Z,27.72
2023-03-29T10:00:50.752Z,27.73
2023-03-29T10:01:50.679Z,27.78
2023-03-29T10:02:50.737Z,27.77
2023-03-29T10:03:51.174Z,27.78
2023-03-29T10:04:51.113Z,27.78
2023-03-29T10:05:50.633Z,27.78
2023-03-29T10:06:50.674Z,27.79
2023-03-29T10:07:50.623Z,27.81
2023-03-29T10:08:50.606Z,27.81
2023-03-29T10:09:50.630Z,27.82
2023-03-29T10:10:50.613Z,27.87
2023-03-29T10:11:50.628Z,27.85
2023-03-29T10:12:50.563Z,27.84
2023-03-29T10:13:50.626Z,27.87
2023-03-29T10:14:53.500Z,27.87
2023-03-29T10:15:50.540Z,27.85
2023-03-29T10:16:50.616Z,27.85
2023-03-29T10:17:50.558Z,27.85
2023-03-29T10:18:50.512Z,27.85
2023-03-29T10:19:50.651Z,27.78
2023-03-29T10:20:50.549Z,27.77
2023-03-29T10:21:50.477Z,27.73
2023-03-29T10:22:50.576Z,27.71
2023-03-29T10:23:50.544Z,27.71
2023-03-29T10:24:50.640Z,27.71
2023-03-29T10:25:50.456Z,27.69
2023-03-29T10:26:50.472Z,27.66
2023-03-29T10:27:50.458Z,27.65
2023-03-29T10:28:50.436Z,27.64
2023-03-29T10:29:50.452Z,27.64
2023-03-29T10:30:50.425Z,27.61
2023-03-29T10:31:50.510Z,27.61
2023-03-29T10:32:50.490Z,27.61
2023-03-29T10:33:50.404Z,27.61
2023-03-29T10:34:50.394Z,27.61
2023-03-29T10:35:50.448Z,27.59
2023-03-29T10:36:50.415Z,27.61
2023-03-29T10:37:50.388Z,27.62
2023-03-29T10:38:50.357Z,27.61
2023-03-29T10:39:50.377Z,27.64
2023-03-29T10:40:50.352Z,27.59
2023-03-29T10:41:50.385Z,27.62
2023-03-29T10:42:50.345Z,27.62
2023-03-29T10:43:50.345Z,27.62
2023-03-29T10:44:50.372Z,27.62
2023-03-29T10:45:50.376Z,27.61
2023-03-29T10:46:50.326Z,27.62
2023-03-29T10:47:50.369Z,27.62
2023-03-29T10:48:50.322Z,27.62
2023-03-29T10:49:51.067Z,27.62
2023-03-29T10:50:50.293Z,27.64
2023-03-29T10:51:50.312Z,27.64
2023-03-29T10:52:50.327Z,27.62
2023-03-29T10:53:50.273Z,27.66
2023-03-29T10:54:50.293Z,27.64
2023-03-29T10:55:50.259Z,27.65
2023-03-29T10:56:52.343Z,27.62
2023-03-29T10:57:50.296Z,27.59
2023-03-29T10:58:50.238Z,27.61
2023-03-29T10:59:50.691Z,27.61
2023-03-29T11:00:50.226Z,27.61
2023-03-29T11:01:50.275Z,27.65
2023-03-29T11:02:50.347Z,27.64
2023-03-29T11:03:50.273Z,27.64
2023-03-29T11:04:50.680Z,27.64
2023-03-29T11:05:50.211Z,27.68
2023-03-29T11:06:50.167Z,27.65
2023-03-29T11:07:50.234Z,27.66
2023-03-29T11:08:50.150Z,27.69
2023-03-29T11:09:50.159Z,27.69
2023-03-29T11:10:50.176Z,27.69
2023-03-29T11:11:51.583Z,27.69
2023-03-29T11:12:51.198Z,27.71
2023-03-29T11:13:50.185Z,27.72
2023-03-29T11:14:50.712Z,27.73
2023-03-29T11:15:50.740Z,27.73
2023-03-29T11:16:50.178Z,27.73
2023-03-29T11:17:50.194Z,27.77
2023-03-29T11:18:50.181Z,27.77
2023-03-29T11:19:50.144Z,27.79
2023-03-29T11:20:50.152Z,27.79
2023-03-29T11:21:50.193Z,27.79
2023-03-29T11:22:50.221Z,27.81
2023-03-29T11:23:50.278Z,27.81
2023-03-29T11:24:50.375Z,27.82
2023-03-29T11:25:50.498Z,27.82
2023-03-29T11:26:50.447Z,27.81
2023-03-29T11:27:50.502Z,27.85
2023-03-29T11:28:50.566Z,27.81
2023-03-29T11:29:50.641Z,27.84
2023-03-29T11:30:50.754Z,27.81
2023-03-29T11:31:50.811Z,27.84
2023-03-29T11:32:50.864Z,27.85
2023-03-29T11:33:50.836Z,27.82
2023-03-29T11:34:50.892Z,27.84
2023-03-29T11:35:51.027Z,27.87
2023-03-29T11:36:51.048Z,27.88
2023-03-29T11:37:51.215Z,27.88
2023-03-29T11:38:51.124Z,27.91
2023-03-29T11:39:51.191Z,27.89
2023-03-29T11:40:51.247Z,27.92
2023-03-29T11:41:51.315Z,27.93
2023-03-29T11:42:51.377Z,27.92
2023-03-29T11:43:51.454Z,27.93
2023-03-29T11:44:53.414Z,27.96
2023-03-29T11:45:51.500Z,27.99
2023-03-29T11:46:51.521Z,27.98
2023-03-29T11:47:51.491Z,27.98
2023-03-29T11:48:51.466Z,27.92
2023-03-29T11:49:51.471Z,27.95
2023-03-29T11:50:51.455Z,27.93
2023-03-29T11:51:51.442Z,27.91
2023-03-29T11:52:51.436Z,27.91
2023-03-29T11:53:51.416Z,27.89
2023-03-29T11:54:51.421Z,27.88
2023-03-29T11:55:51.684Z,27.87
2023-03-29T11:56:51.488Z,27.88
2023-03-29T11:57:51.676Z,27.88
2023-03-29T11:58:51.397Z,27.88
2023-03-29T11:59:51.393Z,27.85
2023-03-29T12:00:51.361Z,27.82
2023-03-29T12:01:51.386Z,27.84
2023-03-29T12:02:51.695Z,27.82
2023-03-29T12:03:51.444Z,27.82
2023-03-29T12:04:51.366Z,27.84
2023-03-29T12:05:51.354Z,27.84
2023-03-29T12:06:51.355Z,27.82
2023-03-29T12:07:51.325Z,27.82
2023-03-29T12:08:51.316Z,27.85
2023-03-29T12:09:51.316Z,27.84
2023-03-29T12:10:51.322Z,27.82
2023-03-29T12:11:51.309Z,27.85
2023-03-29T12:12:51.662Z,27.84
2023-03-29T12:13:51.273Z,27.82
2023-03-29T12:14:51.257Z,27.84
2023-03-29T12:15:51.271Z,27.85
2023-03-29T12:16:51.296Z,27.85
2023-03-29T12:17:51.302Z,27.84
2023-03-29T12:18:51.224Z,27.84
2023-03-29T12:19:51.239Z,27.82
2023-03-29T12:20:51.244Z,27.82
2023-03-29T12:21:51.273Z,27.81
2023-03-29T12:22:51.332Z,27.82
2023-03-29T12:23:51.361Z,27.82
2023-03-29T12:24:51.414Z,27.79
2023-03-29T12:25:51.485Z,27.79
2023-03-29T12:26:51.541Z,27.78
2023-03-29T12:27:51.603Z,27.81
2023-03-29T12:28:51.671Z,27.79
2023-03-29T12:29:51.697Z,27.78
2023-03-29T12:30:51.751Z,27.79
2023-03-29T12:31:51.850Z,27.79
2023-03-29T12:32:51.948Z,27.77
2023-03-29T12:33:51.942Z,27.78
2023-03-29T12:34:51.989Z,27.77
2023-03-29T12:35:52.105Z,27.78
2023-03-29T12:36:52.131Z,27.79
2023-03-29T12:37:52.146Z,27.78
2023-03-29T12:38:52.188Z,27.78
2023-03-29T12:39:52.243Z,27.78
2023-03-29T12:40:52.306Z,27.77
2023-03-29T12:41:52.366Z,27.78
2023-03-29T12:42:52.412Z,27.77
2023-03-29T12:43:52.496Z,27.78
2023-03-29T12:44:52.565Z,27.79
2023-03-29T12:45:52.925Z,27.78
2023-03-29T12:46:52.688Z,27.79
2023-03-29T12:47:52.753Z,27.81
2023-03-29T12:48:52.746Z,27.79
2023-03-29T12:49:52.792Z,27.79
2023-03-29T12:50:52.868Z,27.78
2023-03-29T12:51:52.922Z,27.75
2023-03-29T12:52:52.993Z,27.81